createdAt,value
2018-07-31T00:01:37.585Z,7.20
2018-07-31T00:04:06.547Z,4.67
2018-07-31T00:06:35.098Z,5.53
2018-07-31T00:09:07.505Z,5.60
2018-07-31T00:11:36.595Z,4.27
2018-07-31T00:14:06.148Z,5.37
2018-07-31T00:16:34.651Z,6.13
2018-07-31T00:19:05.764Z,5.77
2018-07-31T00:21:34.283Z,6.43
2018-07-31T00:24:03.360Z,4.67
2018-07-31T00:26:33.059Z,5.30
2018-07-31T00:29:01.525Z,4.10
2018-07-31T00:31:30.008Z,6.33
2018-07-31T00:33:58.595Z,8.37
2018-07-31T00:36:27.133Z,6.77
2018-07-31T00:38:55.673Z,6.90
2018-07-31T00:41:24.543Z,6.53
2018-07-31T00:43:55.386Z,4.60
2018-07-31T00:46:23.926Z,5.97
2018-07-31T00:48:53.015Z,4.70
2018-07-31T00:51:21.650Z,10.90
2018-07-31T00:53:50.771Z,9.57
2018-07-31T00:56:19.649Z,6.87
2018-07-31T00:58:49.426Z,7.47
2018-07-31T01:01:17.911Z,10.43
2018-07-31T01:03:46.560Z,4.13
2018-07-31T01:06:15.687Z,4.37
2018-07-31T01:08:44.895Z,4.10
2018-07-31T01:11:13.588Z,6.23
2018-07-31T01:13:42.103Z,6.70
2018-07-31T01:16:10.582Z,4.77
2018-07-31T01:18:39.439Z,4.70
2018-07-31T01:21:07.995Z,7.13
2018-07-31T01:23:36.477Z,11.07
2018-07-31T01:26:05.057Z,8.00
2018-07-31T01:28:33.985Z,5.53
2018-07-31T01:31:03.998Z,7.43
2018-07-31T01:33:32.470Z,8.10
2018-07-31T01:36:01.146Z,10.40
2018-07-31T01:38:30.631Z,6.93
2018-07-31T01:40:58.819Z,4.97
2018-07-31T01:43:28.091Z,6.80
2018-07-31T01:45:58.353Z,9.30
2018-07-31T01:48:26.993Z,8.27
2018-07-31T01:50:55.490Z,6.50
2018-07-31T01:53:24.018Z,9.00
2018-07-31T01:55:52.739Z,10.93
2018-07-31T01:58:22.577Z,11.50
2018-07-31T02:00:51.113Z,8.30
2018-07-31T02:03:19.579Z,7.83
2018-07-31T02:05:48.109Z,13.07
2018-07-31T02:08:16.568Z,9.57
2018-07-31T02:10:48.278Z,10.20
2018-07-31T02:13:16.942Z,9.10
2018-07-31T02:15:45.865Z,10.50
2018-07-31T02:18:15.978Z,13.47
2018-07-31T02:20:44.512Z,15.20
2018-07-31T02:23:14.051Z,12.10
2018-07-31T02:25:42.266Z,13.20
2018-07-31T02:28:10.807Z,13.90
2018-07-31T02:30:40.363Z,13.03
2018-07-31T02:33:08.858Z,17.13
2018-07-31T02:35:38.236Z,15.63
2018-07-31T02:38:07.149Z,13.17
2018-07-31T02:40:36.900Z,16.53
2018-07-31T02:43:06.014Z,16.40
2018-07-31T02:45:34.503Z,16.20
2018-07-31T02:48:03.047Z,14.57
2018-07-31T02:50:32.383Z,17.13
2018-07-31T02:53:02.078Z,18.37
2018-07-31T02:55:30.581Z,17.93
2018-07-31T02:57:59.998Z,16.60
2018-07-31T03:00:28.500Z,20.33
2018-07-31T03:02:57.762Z,17.53
2018-07-31T03:05:26.299Z,17.60
2018-07-31T03:07:54.854Z,17.90
2018-07-31T03:10:54.413Z,19.57
2018-07-31T03:13:23.529Z,19.47
2018-07-31T03:15:52.122Z,18.70
2018-07-31T03:18:20.666Z,18.93
2018-07-31T03:20:49.668Z,20.83
2018-07-31T03:23:18.841Z,21.93
2018-07-31T03:25:47.499Z,20.87
2018-07-31T03:28:16.091Z,23.80
2018-07-31T03:30:45.387Z,23.33
2018-07-31T03:33:13.878Z,22.53
2018-07-31T03:35:43.518Z,21.73
2018-07-31T03:38:12.027Z,22.23
2018-07-31T03:40:42.150Z,23.20
2018-07-31T03:43:10.719Z,26.03
2018-07-31T03:45:39.779Z,22.37
2018-07-31T03:48:08.304Z,23.37
2018-07-31T03:50:36.856Z,21.53
2018-07-31T03:53:05.585Z,24.00
2018-07-31T03:55:34.108Z,22.93
2018-07-31T03:58:02.780Z,23.20
2018-07-31T04:00:31.296Z,22.40
2018-07-31T04:02:59.796Z,25.67
2018-07-31T04:05:28.338Z,24.37
2018-07-31T04:07:57.892Z,23.53
2018-07-31T04:10:27.248Z,22.40
2018-07-31T04:12:55.972Z,23.07
2018-07-31T04:15:24.880Z,21.03
2018-07-31T04:17:57.019Z,24.27
2018-07-31T04:20:27.122Z,22.10
2018-07-31T04:22:55.664Z,22.80
2018-07-31T04:25:25.032Z,23.10
2018-07-31T04:27:53.747Z,22.77
2018-07-31T04:30:22.279Z,20.47
2018-07-31T04:32:50.827Z,22.03
2018-07-31T04:35:19.475Z,21.37
2018-07-31T04:37:48.893Z,21.87
2018-07-31T04:40:17.409Z,25.77
2018-07-31T04:42:45.891Z,22.87
2018-07-31T04:45:14.423Z,29.53
2018-07-31T04:47:42.895Z,21.37
2018-07-31T04:50:11.841Z,21.50
2018-07-31T04:52:41.960Z,20.87
2018-07-31T04:55:10.446Z,21.50
2018-07-31T04:57:39.281Z,21.33
2018-07-31T05:00:09.427Z,25.23
2018-07-31T05:02:39.221Z,21.23
2018-07-31T05:05:07.766Z,20.00
2018-07-31T05:07:39.364Z,20.53
2018-07-31T05:10:11.156Z,23.60
2018-07-31T05:12:41.159Z,19.30
2018-07-31T05:15:10.039Z,19.37
2018-07-31T05:17:39.226Z,20.13
2018-07-31T05:20:09.731Z,18.87
2018-07-31T05:22:38.747Z,18.97
2018-07-31T05:25:07.393Z,18.37
2018-07-31T05:27:36.399Z,17.80
2018-07-31T05:30:08.010Z,19.37
2018-07-31T05:32:37.850Z,24.23
2018-07-31T05:35:07.576Z,16.33
2018-07-31T05:37:36.807Z,19.13
2018-07-31T05:40:08.095Z,16.33
2018-07-31T05:42:38.498Z,16.70
2018-07-31T05:45:07.355Z,15.77
2018-07-31T05:47:35.891Z,16.73
2018-07-31T05:50:05.619Z,16.10
2018-07-31T05:52:34.508Z,17.43
2018-07-31T05:55:03.272Z,18.43
2018-07-31T05:57:32.466Z,16.70
2018-07-31T06:00:01.832Z,15.43
2018-07-31T06:02:30.380Z,15.30
2018-07-31T06:04:59.237Z,16.57
2018-07-31T06:07:28.859Z,17.30
2018-07-31T06:09:57.822Z,18.47
2018-07-31T06:12:27.595Z,15.20
2018-07-31T06:14:57.169Z,17.27
2018-07-31T06:17:25.773Z,16.00
2018-07-31T06:19:54.270Z,17.53
2018-07-31T06:22:22.915Z,20.80
2018-07-31T06:24:52.978Z,14.50
2018-07-31T06:27:22.905Z,14.67
2018-07-31T06:29:51.495Z,15.47
2018-07-31T06:32:20.574Z,13.33
2018-07-31T06:34:49.527Z,15.73
2018-07-31T06:37:18.449Z,11.53
2018-07-31T06:39:47.185Z,14.67
2018-07-31T06:42:15.838Z,10.77
2018-07-31T06:44:44.925Z,12.03
2018-07-31T06:47:14.033Z,10.72
2018-07-31T06:49:43.519Z,13.38
2018-07-31T06:52:13.651Z,9.30
2018-07-31T06:54:43.184Z,10.00
2018-07-31T06:57:12.250Z,13.03
2018-07-31T06:59:42.129Z,9.43
2018-07-31T07:02:11.166Z,9.75
2018-07-31T07:04:40.451Z,10.28
2018-07-31T07:07:10.235Z,9.90
2018-07-31T07:09:40.121Z,9.15
2018-07-31T07:12:10.063Z,12.55
2018-07-31T07:14:39.214Z,9.58
2018-07-31T07:17:08.272Z,14.58
2018-07-31T07:19:38.438Z,11.40
2018-07-31T07:22:07.667Z,14.68
2018-07-31T07:24:36.790Z,9.50
2018-07-31T07:27:06.785Z,15.90
2018-07-31T07:29:36.235Z,17.30
2018-07-31T07:32:05.853Z,16.87
2018-07-31T07:34:34.955Z,13.25
2018-07-31T07:37:04.679Z,11.90
2018-07-31T07:39:33.757Z,9.95
2018-07-31T07:42:02.879Z,10.75
2018-07-31T07:44:32.370Z,9.85
2018-07-31T07:47:03.232Z,8.27
2018-07-31T07:49:32.224Z,8.13
2018-07-31T07:52:00.887Z,7.50
2018-07-31T07:54:30.934Z,7.97
2018-07-31T07:57:01.244Z,9.40
2018-07-31T07:59:30.310Z,15.35
2018-07-31T08:02:00.089Z,8.25
2018-07-31T08:04:29.521Z,10.18
2018-07-31T08:06:59.004Z,12.10
2018-07-31T08:09:28.056Z,9.05
2018-07-31T08:11:57.179Z,7.35
2018-07-31T08:14:26.262Z,9.65
2018-07-31T08:16:55.731Z,9.60
2018-07-31T08:19:25.316Z,10.72
2018-07-31T08:21:54.805Z,5.72
2018-07-31T08:24:24.847Z,8.03
2018-07-31T08:26:54.133Z,8.90
2018-07-31T08:29:23.503Z,7.33
2018-07-31T08:31:53.819Z,9.93
2018-07-31T08:34:23.989Z,5.58
2018-07-31T08:36:55.407Z,8.08
2018-07-31T08:39:25.330Z,6.15
2018-07-31T08:41:54.400Z,8.80
2018-07-31T08:44:24.742Z,7.55
2018-07-31T08:46:53.800Z,5.37
2018-07-31T08:49:22.870Z,7.08
2018-07-31T08:51:51.888Z,6.28
2018-07-31T08:54:20.941Z,7.70
2018-07-31T08:56:50.245Z,8.58
2018-07-31T08:59:19.285Z,8.98
2018-07-31T09:01:48.323Z,5.00
2018-07-31T09:04:18.907Z,7.25
2018-07-31T09:06:47.654Z,5.50
2018-07-31T09:09:17.692Z,5.40
2018-07-31T09:11:47.322Z,6.60
2018-07-31T09:14:16.633Z,6.62
2018-07-31T09:16:45.928Z,10.20
2018-07-31T09:19:15.284Z,5.78
2018-07-31T09:21:44.247Z,7.78
2018-07-31T09:24:13.670Z,7.42
2018-07-31T09:26:42.655Z,11.95
2018-07-31T09:29:11.981Z,6.72
2018-07-31T09:31:41.529Z,7.62
2018-07-31T09:34:10.555Z,5.00
2018-07-31T09:36:40.109Z,4.35
2018-07-31T09:39:11.661Z,7.78
2018-07-31T09:41:40.955Z,6.97
2018-07-31T09:44:10.586Z,9.58
2018-07-31T09:46:39.556Z,7.92
2018-07-31T09:49:08.508Z,5.87
2018-07-31T09:51:37.534Z,8.75
2018-07-31T09:54:06.603Z,5.12
2018-07-31T09:56:35.960Z,8.88
2018-07-31T09:59:05.903Z,6.30
2018-07-31T10:01:35.261Z,8.13
2018-07-31T10:04:04.297Z,4.70
2018-07-31T10:06:34.754Z,6.72
2018-07-31T10:09:05.847Z,4.28
2018-07-31T10:11:34.875Z,4.60
2018-07-31T10:14:04.695Z,6.67
2018-07-31T10:16:33.695Z,6.80
2018-07-31T10:19:03.380Z,11.18
2018-07-31T10:21:32.719Z,6.85
2018-07-31T10:24:01.697Z,7.58
2018-07-31T10:26:31.750Z,4.95
2018-07-31T10:29:00.712Z,4.60
2018-07-31T10:31:29.704Z,6.37
2018-07-31T10:33:58.866Z,3.75
2018-07-31T10:36:27.867Z,5.08
2018-07-31T10:38:56.874Z,6.15
2018-07-31T10:41:25.840Z,4.70
2018-07-31T10:43:54.840Z,4.72
2018-07-31T10:46:23.969Z,4.90
2018-07-31T10:48:53.020Z,7.30
2018-07-31T10:51:21.971Z,8.73
2018-07-31T10:53:52.482Z,4.70
2018-07-31T10:56:21.437Z,6.78
2018-07-31T10:58:50.435Z,5.72
2018-07-31T11:01:20.452Z,3.75
2018-07-31T11:03:49.501Z,4.92
2018-07-31T11:06:18.180Z,4.50
2018-07-31T11:08:47.366Z,4.05
2018-07-31T11:11:16.252Z,8.00
2018-07-31T11:13:45.198Z,5.87
2018-07-31T11:16:13.730Z,7.10
2018-07-31T11:18:44.081Z,4.20
2018-07-31T11:21:14.102Z,4.17
2018-07-31T11:23:44.421Z,6.28
2018-07-31T11:26:14.049Z,4.60
2018-07-31T11:28:44.420Z,4.40
2018-07-31T11:31:13.674Z,3.15
2018-07-31T11:33:51.251Z,6.28
2018-07-31T11:36:24.627Z,3.75
2018-07-31T11:38:54.224Z,3.22
2018-07-31T11:41:24.964Z,4.95
2018-07-31T11:43:54.136Z,6.05
2018-07-31T11:46:23.290Z,4.50
2018-07-31T11:48:52.626Z,6.22
2018-07-31T11:51:22.352Z,4.17
2018-07-31T11:53:51.825Z,3.05
2018-07-31T11:56:20.983Z,6.58
2018-07-31T11:58:50.457Z,6.90
2018-07-31T12:01:19.726Z,6.15
2018-07-31T12:03:48.888Z,7.53
2018-07-31T12:06:18.709Z,5.72
2018-07-31T12:08:48.708Z,5.10
2018-07-31T12:11:18.612Z,4.87
2018-07-31T12:13:48.030Z,10.68
2018-07-31T12:16:17.404Z,4.40
2018-07-31T12:18:46.002Z,4.50
2018-07-31T12:21:15.217Z,6.63
2018-07-31T12:23:44.262Z,6.00
2018-07-31T12:26:12.770Z,4.78
2018-07-31T12:28:41.802Z,3.72
2018-07-31T12:31:11.719Z,4.72
2018-07-31T12:33:41.134Z,5.12
2018-07-31T12:36:10.912Z,5.85
2018-07-31T12:38:40.409Z,6.72
2018-07-31T12:41:09.475Z,3.83
2018-07-31T12:43:38.563Z,6.42
2018-07-31T12:46:08.475Z,6.08
2018-07-31T12:48:38.682Z,5.33
2018-07-31T12:51:07.802Z,4.75
2018-07-31T12:53:37.206Z,5.17
2018-07-31T12:56:06.903Z,5.30
2018-07-31T12:58:35.421Z,4.40
2018-07-31T13:01:03.949Z,5.27
2018-07-31T13:03:32.442Z,5.20
2018-07-31T13:06:00.968Z,4.10
2018-07-31T13:08:31.498Z,2.60
2018-07-31T13:11:00.056Z,4.50
2018-07-31T13:13:29.083Z,4.95
2018-07-31T13:15:59.711Z,4.95
2018-07-31T13:18:28.198Z,5.03
2018-07-31T13:20:57.554Z,5.10
2018-07-31T13:23:26.650Z,3.92
2018-07-31T13:25:55.846Z,3.62
2018-07-31T13:28:24.983Z,6.05
2018-07-31T13:30:53.985Z,2.90
2018-07-31T13:33:22.583Z,6.08
2018-07-31T13:35:51.058Z,2.27
2018-07-31T13:38:20.324Z,4.00
2018-07-31T13:40:48.972Z,4.12
2018-07-31T13:43:17.800Z,3.27
2018-07-31T13:45:46.696Z,8.87
2018-07-31T13:48:15.833Z,6.60
2018-07-31T13:50:44.371Z,3.50
2018-07-31T13:53:14.396Z,5.83
2018-07-31T13:55:42.910Z,5.67
2018-07-31T13:58:11.387Z,4.43
2018-07-31T14:00:39.888Z,6.13
2018-07-31T14:03:08.652Z,8.50
2018-07-31T14:05:37.267Z,3.10
2018-07-31T14:08:07.215Z,8.63
2018-07-31T14:10:36.348Z,4.83
2018-07-31T14:13:05.215Z,4.53
2018-07-31T14:15:34.475Z,5.60
2018-07-31T14:18:03.339Z,3.07
2018-07-31T14:20:32.492Z,6.03
2018-07-31T14:23:01.780Z,3.37
2018-07-31T14:25:30.296Z,6.30
2018-07-31T14:27:58.807Z,3.17
2018-07-31T14:30:27.563Z,2.60
2018-07-31T14:32:56.239Z,2.87
2018-07-31T14:35:24.813Z,5.40
2018-07-31T14:37:53.785Z,3.67
2018-07-31T14:40:23.767Z,5.77
2018-07-31T14:42:52.277Z,2.20
2018-07-31T14:45:20.931Z,8.57
2018-07-31T14:47:49.430Z,2.70
2018-07-31T14:50:17.628Z,3.43
2018-07-31T14:52:46.218Z,3.43
2018-07-31T14:55:14.704Z,2.53
2018-07-31T14:57:43.363Z,4.77
2018-07-31T15:00:11.899Z,4.23
2018-07-31T15:02:41.883Z,3.83
2018-07-31T15:05:13.605Z,4.73
2018-07-31T15:07:42.189Z,4.27
2018-07-31T15:10:10.833Z,3.63
2018-07-31T15:12:40.244Z,2.43
2018-07-31T15:15:09.439Z,4.07
2018-07-31T15:17:38.149Z,3.27
2018-07-31T15:20:09.430Z,3.47
2018-07-31T15:22:38.090Z,2.23
2018-07-31T15:25:07.037Z,4.80
2018-07-31T15:27:35.802Z,3.93
2018-07-31T15:30:05.754Z,4.30
2018-07-31T15:32:34.871Z,3.63
2018-07-31T15:35:03.526Z,3.67
2018-07-31T15:37:32.481Z,5.37
2018-07-31T15:40:01.338Z,5.83
2018-07-31T15:42:30.611Z,3.10
2018-07-31T15:44:59.339Z,3.60
2018-07-31T15:47:27.999Z,3.87
2018-07-31T15:49:57.016Z,9.43
2018-07-31T15:52:26.219Z,3.67
2018-07-31T15:54:55.602Z,2.63
2018-07-31T15:57:24.128Z,3.03
2018-07-31T15:59:52.651Z,2.53
2018-07-31T16:02:21.241Z,3.23
2018-07-31T16:04:50.809Z,2.50
2018-07-31T16:07:20.420Z,4.47
2018-07-31T16:09:48.995Z,2.40
2018-07-31T16:12:17.520Z,4.27
2018-07-31T16:14:46.859Z,2.67
2018-07-31T16:17:15.687Z,2.23
2018-07-31T16:19:44.805Z,8.37
2018-07-31T16:22:13.466Z,3.37
2018-07-31T16:24:42.103Z,2.20
2018-07-31T16:27:12.129Z,2.70
2018-07-31T16:29:40.689Z,4.23
2018-07-31T16:32:09.963Z,6.57
2018-07-31T16:34:38.552Z,3.13
2018-07-31T16:37:07.484Z,4.90
2018-07-31T16:39:36.643Z,4.80
2018-07-31T16:42:05.266Z,8.03
2018-07-31T16:44:33.782Z,2.53
2018-07-31T16:47:03.774Z,3.30
2018-07-31T16:49:32.307Z,4.20
2018-07-31T16:52:00.840Z,4.30
2018-07-31T16:54:29.327Z,4.07
2018-07-31T16:56:57.867Z,4.30
2018-07-31T16:59:27.641Z,7.87
2018-07-31T17:01:57.182Z,5.80
2018-07-31T17:04:25.806Z,5.23
2018-07-31T17:06:54.871Z,6.07
2018-07-31T17:09:23.404Z,10.27
2018-07-31T17:11:52.282Z,8.60
2018-07-31T17:14:21.934Z,4.63
2018-07-31T17:16:50.541Z,5.00
2018-07-31T17:19:19.790Z,8.60
2018-07-31T17:21:48.284Z,5.57
2018-07-31T17:24:17.046Z,6.03
2018-07-31T17:26:45.599Z,10.77
2018-07-31T17:29:14.085Z,12.17
2018-07-31T17:31:42.602Z,6.47
2018-07-31T17:34:11.067Z,4.90
2018-07-31T17:36:39.820Z,4.17
2018-07-31T17:39:10.028Z,8.37
2018-07-31T17:41:39.675Z,9.13
2018-07-31T17:44:08.288Z,6.33
2018-07-31T17:46:36.841Z,6.93
2018-07-31T17:49:05.982Z,7.83
2018-07-31T17:51:34.495Z,7.93
2018-07-31T17:54:03.034Z,5.00
2018-07-31T17:56:32.624Z,10.87
2018-07-31T17:59:01.118Z,4.77
2018-07-31T18:01:30.043Z,5.60
2018-07-31T18:03:58.735Z,7.50
2018-07-31T18:06:27.290Z,3.80
2018-07-31T18:08:56.980Z,5.37
2018-07-31T18:11:25.537Z,5.03
2018-07-31T18:13:54.036Z,4.97
2018-07-31T18:16:22.743Z,4.20
2018-07-31T18:18:51.486Z,7.80
2018-07-31T18:21:19.981Z,5.50
2018-07-31T18:23:48.944Z,4.77
2018-07-31T18:26:19.584Z,7.83
2018-07-31T18:28:48.126Z,5.07
2018-07-31T18:31:18.305Z,6.00
2018-07-31T18:33:46.848Z,5.97
2018-07-31T18:36:15.336Z,3.90
2018-07-31T18:38:44.200Z,3.20
2018-07-31T18:41:13.116Z,4.90
2018-07-31T18:43:42.666Z,5.33
2018-07-31T18:46:11.174Z,5.33
2018-07-31T18:48:39.866Z,4.30
2018-07-31T18:51:09.180Z,9.43
2018-07-31T18:53:37.736Z,3.70
2018-07-31T18:56:06.867Z,5.50
2018-07-31T18:58:36.498Z,3.67
2018-07-31T19:01:05.191Z,5.10
2018-07-31T19:03:34.192Z,4.37
2018-07-31T19:06:02.755Z,4.27
2018-07-31T19:08:32.203Z,5.70
2018-07-31T19:11:00.379Z,4.83
2018-07-31T19:13:30.523Z,3.97
2018-07-31T19:15:59.028Z,7.53
2018-07-31T19:18:27.511Z,6.80
2018-07-31T19:20:56.035Z,7.73
2018-07-31T19:23:24.862Z,5.70
2018-07-31T19:25:55.188Z,6.67
2018-07-31T19:28:24.219Z,3.87
2018-07-31T19:30:53.691Z,5.03
2018-07-31T19:33:22.203Z,7.23
2018-07-31T19:35:50.884Z,3.37
2018-07-31T19:38:19.347Z,5.93
2018-07-31T19:40:47.840Z,6.63
2018-07-31T19:43:16.671Z,9.83
2018-07-31T19:45:45.888Z,5.40
2018-07-31T19:48:14.360Z,5.00
2018-07-31T19:50:42.866Z,6.10
2018-07-31T19:53:11.395Z,4.60
2018-07-31T19:55:40.353Z,9.30
2018-07-31T19:58:08.857Z,4.37
2018-07-31T20:00:38.034Z,5.67
2018-07-31T20:03:06.951Z,3.30
2018-07-31T20:05:35.453Z,4.00
2018-07-31T20:08:04.630Z,2.63
2018-07-31T20:10:33.192Z,5.97
2018-07-31T20:13:03.044Z,6.20
2018-07-31T20:15:31.614Z,6.10
2018-07-31T20:18:00.218Z,5.80
2018-07-31T20:20:29.135Z,4.03
2018-07-31T20:22:58.499Z,4.03
2018-07-31T20:25:26.995Z,4.70
2018-07-31T20:27:55.476Z,6.60
2018-07-31T20:30:24.053Z,7.10
2018-07-31T20:32:52.611Z,5.43
2018-07-31T20:35:21.090Z,3.80
2018-07-31T20:37:50.364Z,5.37
2018-07-31T20:40:19.078Z,4.10
2018-07-31T20:42:49.011Z,4.13
2018-07-31T20:45:17.715Z,3.43
2018-07-31T20:47:46.318Z,7.10
2018-07-31T20:50:15.394Z,6.93
2018-07-31T20:52:44.096Z,6.20
2018-07-31T20:55:12.691Z,4.73
2018-07-31T20:57:41.295Z,4.07
2018-07-31T21:00:09.966Z,5.03
2018-07-31T21:02:39.245Z,3.97
2018-07-31T21:05:08.056Z,6.50
2018-07-31T21:07:37.376Z,9.13
2018-07-31T21:10:05.971Z,6.97
2018-07-31T21:12:36.777Z,6.43
2018-07-31T21:15:07.830Z,3.33
2018-07-31T21:17:38.231Z,3.87
2018-07-31T21:20:07.344Z,5.67
2018-07-31T21:22:35.803Z,5.73
2018-07-31T21:25:05.266Z,4.53
2018-07-31T21:27:34.066Z,6.57
2018-07-31T21:30:02.734Z,3.73
2018-07-31T21:32:31.786Z,5.33
2018-07-31T21:35:00.738Z,3.33
2018-07-31T21:37:29.259Z,4.13
2018-07-31T21:39:57.910Z,5.07
2018-07-31T21:42:26.719Z,5.97
2018-07-31T21:44:55.837Z,6.27
2018-07-31T21:47:24.420Z,5.83
2018-07-31T21:49:52.927Z,4.13
2018-07-31T21:52:21.621Z,3.90
2018-07-31T21:54:50.751Z,2.30
2018-07-31T21:57:19.507Z,5.27
2018-07-31T21:59:48.062Z,4.33
2018-07-31T22:02:17.812Z,7.73
2018-07-31T22:04:48.801Z,3.67
2018-07-31T22:07:18.244Z,4.80
2018-07-31T22:09:48.545Z,5.03
2018-07-31T22:12:17.023Z,5.57
2018-07-31T22:14:45.534Z,5.87
2018-07-31T22:17:14.039Z,4.57
2018-07-31T22:19:42.927Z,8.13
2018-07-31T22:22:11.443Z,4.80
2018-07-31T22:24:40.226Z,3.33
2018-07-31T22:27:08.852Z,4.73
2018-07-31T22:29:37.658Z,2.73
2018-07-31T22:32:06.374Z,3.87
2018-07-31T22:34:36.163Z,4.60
2018-07-31T22:37:04.679Z,5.57
2018-07-31T22:39:33.247Z,6.13
2018-07-31T22:42:03.595Z,4.33
2018-07-31T22:44:32.103Z,4.83
2018-07-31T22:47:00.615Z,3.90
2018-07-31T22:49:29.139Z,6.80
2018-07-31T22:51:57.637Z,5.33
2018-07-31T22:54:26.120Z,10.57
2018-07-31T22:56:55.206Z,5.80
2018-07-31T22:59:24.699Z,4.03
2018-07-31T23:01:54.811Z,3.40
2018-07-31T23:04:23.307Z,5.17
2018-07-31T23:06:51.801Z,5.07
2018-07-31T23:09:20.280Z,2.37
2018-07-31T23:11:49.076Z,3.53
2018-07-31T23:14:17.575Z,6.03
2018-07-31T23:16:46.388Z,5.83
2018-07-31T23:19:14.869Z,5.20
2018-07-31T23:21:43.643Z,4.43
2018-07-31T23:24:12.142Z,2.83
2018-07-31T23:26:40.937Z,2.80
2018-07-31T23:29:09.400Z,3.80
2018-07-31T23:31:37.911Z,8.27
2018-07-31T23:34:06.731Z,5.20
2018-07-31T23:36:35.308Z,3.13
2018-07-31T23:39:04.559Z,3.23
2018-07-31T23:41:33.071Z,2.83
2018-07-31T23:44:01.899Z,3.37
2018-07-31T23:46:30.424Z,7.07
2018-07-31T23:48:59.003Z,4.10
2018-07-31T23:51:27.599Z,3.97
2018-07-31T23:53:56.413Z,2.67
2018-07-31T23:56:24.916Z,2.77
2018-07-31T23:58:53.387Z,2.93
